Time;durP1;ratioP1;P1;durP2;ratioP2;P2;SDS_P1;SDS_P2;PMS_P1;PMS_P2;Temp;Humidity;BMP_temperature;BMP_pressure;BME280_temperature;BME280_humidity;BME280_pressure;Samples;Min_cycle;Max_cycle;Signal;HPM_P1;HPM_P2
2022/01/03 00:01:25;;;;;;;7.27;2.10;;;11.40;99.90;;;;;;12867407;23;20199;-79
2022/01/03 00:07:28;;;;;;;9.50;1.80;;;11.10;99.90;;;;;;12843606;23;20220;-80
2022/01/03 00:12:46;;;;;;;9.27;1.63;;;10.90;99.90;;;;;;12869651;23;20288;-77
2022/01/03 00:18:04;;;;;;;3.73;1.00;;;10.80;99.90;;;;;;12839375;23;20264;-77
2022/01/03 00:23:08;;;;;;;5.43;1.30;;;10.60;99.90;;;;;;12818752;23;20204;-78
2022/01/03 00:28:30;;;;;;;6.50;1.27;;;10.40;99.90;;;;;;12825939;23;20212;-78
2022/01/03 00:33:39;;;;;;;8.33;1.33;;;10.40;99.90;;;;;;12844074;23;20239;-78
2022/01/03 00:38:47;;;;;;;8.03;1.53;;;10.40;99.90;;;;;;12869124;23;20239;-79
2022/01/03 00:44:07;;;;;;;5.40;1.37;;;10.40;99.90;;;;;;12825089;23;20554;-79
2022/01/03 00:49:08;;;;;;;5.27;1.63;;;10.40;99.90;;;;;;12866820;23;20248;-79
2022/01/03 00:54:10;;;;;;;3.27;1.20;;;10.40;99.90;;;;;;12835304;23;20205;-78
2022/01/03 01:00:15;;;;;;;5.40;1.33;;;10.30;99.90;;;;;;12835227;23;20208;-77
2022/01/03 01:05:27;;;;;;;3.67;0.80;;;10.20;99.90;;;;;;12538516;23;20659;-78
2022/01/03 01:10:45;;;;;;;4.83;0.80;;;10.30;99.90;;;;;;12585162;23;20269;-78
2022/01/03 01:15:50;;;;;;;3.17;0.97;;;10.20;99.90;;;;;;12817051;23;20300;-80
2022/01/03 01:20:57;;;;;;;1.93;0.50;;;10.20;99.90;;;;;;12802264;23;20201;-79
2022/01/03 01:31:44;;;;;;;;;;;;;;;;;;;;;
2022/01/03 01:36:58;;;;;;;3.03;0.90;;;9.80;99.90;;;;;;12864034;23;20217;-78
2022/01/03 01:42:06;;;;;;;5.03;1.50;;;9.80;99.90;;;;;;12841826;23;20205;-79
2022/01/03 01:47:09;;;;;;;7.10;1.43;;;10.00;99.90;;;;;;12842535;23;20257;-80
2022/01/03 01:52:21;;;;;;;2.80;0.90;;;10.00;99.90;;;;;;12866746;23;20209;-79
2022/01/03 01:57:44;;;;;;;5.30;1.13;;;10.00;99.90;;;;;;12834008;23;20212;-77
2022/01/03 02:03:03;;;;;;;5.13;1.00;;;10.00;99.90;;;;;;12815770;23;20202;-79
2022/01/03 02:08:27;;;;;;;2.07;0.77;;;10.00;99.90;;;;;;12852863;23;20268;-79
2022/01/03 02:13:28;;;;;;;4.07;0.87;;;9.90;99.90;;;;;;12874922;23;20201;-80
2022/01/03 02:18:30;;;;;;;4.60;0.90;;;9.70;99.90;;;;;;12849216;23;20218;-78
2022/01/03 02:23:34;;;;;;;3.47;1.17;;;9.60;99.90;;;;;;12874780;23;20274;-77
2022/01/03 02:28:34;;;;;;;3.20;0.80;;;9.50;99.90;;;;;;12844390;23;20225;-78
2022/01/03 02:33:35;;;;;;;3.97;1.13;;;9.30;99.90;;;;;;12848207;23;20201;-78
2022/01/03 02:38:37;;;;;;;2.97;0.97;;;9.30;99.90;;;;;;12848525;23;20212;-79
2022/01/03 02:43:38;;;;;;;5.50;0.90;;;9.20;99.90;;;;;;12847661;23;20228;-77
2022/01/03 02:48:39;;;;;;;5.60;1.00;;;9.30;99.90;;;;;;12851139;23;20653;-80
2022/01/03 02:54:47;;;;;;;;;;;;;;;;;;;;;
2022/01/03 02:59:57;;;;;;;2.53;1.00;;;9.30;99.90;;;;;;12779559;23;20244;-79
2022/01/03 03:05:10;;;;;;;3.70;0.70;;;9.50;99.90;;;;;;12852000;23;20622;-79
2022/01/03 03:10:24;;;;;;;3.03;0.83;;;9.50;99.90;;;;;;12831770;23;20189;-80
2022/01/03 03:15:28;;;;;;;4.70;1.03;;;9.50;99.90;;;;;;12857732;23;20222;-80
2022/01/03 03:21:01;;;;;;;5.50;1.30;;;9.50;99.90;;;;;;12835207;23;20258;-81
2022/01/03 03:26:03;;;;;;;7.53;1.40;;;9.60;99.90;;;;;;12862004;23;20201;-81
2022/01/03 03:31:06;;;;;;;4.43;1.67;;;9.70;99.90;;;;;;12856839;23;20347;-79
2022/01/03 03:36:07;;;;;;;5.57;1.07;;;9.80;99.90;;;;;;12828286;23;20305;-80
2022/01/03 03:41:08;;;;;;;3.27;0.90;;;9.80;99.90;;;;;;12838381;23;20264;-79
2022/01/03 03:46:09;;;;;;;7.43;1.00;;;9.80;99.90;;;;;;12841462;23;20204;-78
2022/01/03 03:51:09;;;;;;;5.37;1.27;;;9.80;99.90;;;;;;12866017;23;20265;-78
2022/01/03 03:56:13;;;;;;;6.57;1.23;;;9.80;99.90;;;;;;12837851;23;20287;-78
2022/01/03 04:01:13;;;;;;;4.80;1.23;;;9.90;99.90;;;;;;12839508;23;20347;-79
2022/01/03 04:06:14;;;;;;;4.73;1.23;;;9.90;99.90;;;;;;12862316;23;20234;-77
2022/01/03 04:11:15;;;;;;;6.67;1.20;;;9.90;99.90;;;;;;12860645;23;20248;-79
2022/01/03 04:16:16;;;;;;;5.10;1.33;;;9.90;99.90;;;;;;12858332;23;20221;-78
2022/01/03 04:21:18;;;;;;;2.43;1.23;;;9.80;99.90;;;;;;12853742;23;20235;-78
2022/01/03 04:26:36;;;;;;;6.83;1.60;;;9.80;99.90;;;;;;12814136;23;20306;-77
2022/01/03 04:31:38;;;;;;;5.30;1.67;;;9.80;99.90;;;;;;12847396;23;20209;-77
2022/01/03 04:36:39;;;;;;;5.53;1.43;;;9.80;99.90;;;;;;12858277;23;20244;-78
2022/01/03 04:41:40;;;;;;;5.90;1.67;;;9.80;99.90;;;;;;12858235;23;20198;-76
2022/01/03 04:46:45;;;;;;;4.60;1.30;;;9.90;99.90;;;;;;12813434;23;20660;-78
2022/01/03 04:56:59;;;;;;;4.90;1.23;;;9.80;99.90;;;;;;12865433;23;20256;-79
2022/01/03 05:02:05;;;;;;;8.93;1.60;;;9.80;99.90;;;;;;12815258;23;20881;-78
2022/01/03 05:07:05;;;;;;;8.73;1.80;;;9.70;99.90;;;;;;12824848;23;20205;-78
2022/01/03 05:12:07;;;;;;;6.53;1.60;;;9.50;99.90;;;;;;12855423;23;20213;-77
2022/01/03 05:17:07;;;;;;;6.07;1.50;;;9.40;99.90;;;;;;12824858;23;20302;-77
2022/01/03 05:22:08;;;;;;;8.10;2.30;;;9.30;99.90;;;;;;12855115;23;20244;-77
2022/01/03 05:27:09;;;;;;;5.60;1.30;;;9.20;99.90;;;;;;12850601;23;20210;-79
2022/01/03 05:32:09;;;;;;;7.37;1.47;;;9.20;99.90;;;;;;12857106;23;20540;-77
2022/01/03 05:37:10;;;;;;;7.20;1.93;;;9.20;99.90;;;;;;12828965;23;20286;-77
2022/01/03 05:42:11;;;;;;;7.07;1.90;;;9.30;99.90;;;;;;12830517;23;20210;-78
2022/01/03 05:47:14;;;;;;;9.63;1.83;;;9.30;99.90;;;;;;12842465;23;20391;-77
2022/01/03 05:52:15;;;;;;;8.67;1.63;;;9.30;99.90;;;;;;12815410;23;20205;-79
2022/01/03 05:57:16;;;;;;;7.47;1.67;;;9.30;99.90;;;;;;12832027;23;20645;-78
2022/01/03 06:02:17;;;;;;;5.67;1.50;;;9.40;99.90;;;;;;12832960;23;20514;-78
2022/01/03 06:07:18;;;;;;;6.33;1.87;;;9.50;99.90;;;;;;12832272;23;20222;-77
2022/01/03 06:12:20;;;;;;;9.90;1.87;;;9.50;99.90;;;;;;12834288;23;20629;-78
2022/01/03 06:17:20;;;;;;;7.80;1.40;;;9.50;99.90;;;;;;12833583;23;20217;-78
2022/01/03 06:22:21;;;;;;;4.07;1.40;;;9.50;99.90;;;;;;12859630;23;20219;-78
2022/01/03 06:27:22;;;;;;;6.20;1.10;;;9.40;99.90;;;;;;12839388;23;20205;-78
2022/01/03 06:32:24;;;;;;;5.67;1.67;;;9.20;99.90;;;;;;12827539;23;20813;-79
2022/01/03 06:37:24;;;;;;;7.40;1.43;;;9.10;99.90;;;;;;12840590;23;20295;-78
2022/01/03 06:42:26;;;;;;;5.30;1.20;;;8.90;99.90;;;;;;12830462;23;20197;-77
2022/01/03 06:52:44;;;;;;;8.17;1.60;;;8.90;99.90;;;;;;12912807;22;20225;-77
2022/01/03 06:57:45;;;;;;;7.20;1.40;;;8.80;99.90;;;;;;12914419;23;20211;-75
2022/01/03 07:02:46;;;;;;;8.90;2.17;;;8.70;99.90;;;;;;12909939;23;20213;-75
2022/01/03 07:07:47;;;;;;;11.67;2.13;;;8.70;99.90;;;;;;12908387;23;20209;-75
2022/01/03 07:12:52;;;;;;;12.10;2.00;;;8.70;99.90;;;;;;12907902;23;20216;-74
2022/01/03 07:23:34;;;;;;;9.80;2.53;;;8.80;99.90;;;;;;12909990;23;20204;-76
2022/01/03 07:28:39;;;;;;;6.23;1.87;;;8.80;99.90;;;;;;12909245;23;20207;-80
2022/01/03 07:33:40;;;;;;;9.03;2.20;;;8.80;99.90;;;;;;12886585;23;20233;-82
2022/01/03 07:38:46;;;;;;;7.83;2.17;;;8.70;99.90;;;;;;12902882;23;20223;-79
2022/01/03 07:43:47;;;;;;;11.77;2.57;;;8.70;99.90;;;;;;12941259;23;20210;-80
2022/01/03 07:48:47;;;;;;;13.93;2.87;;;8.80;99.90;;;;;;12901085;23;20212;-78
2022/01/03 07:53:48;;;;;;;12.23;2.40;;;8.90;99.90;;;;;;12887802;23;20667;-75
2022/01/03 07:58:49;;;;;;;11.13;2.27;;;9.00;99.90;;;;;;12885011;23;20214;-76
2022/01/03 08:04:16;;;;;;;12.73;2.47;;;9.20;99.90;;;;;;12906747;23;20287;-80
2022/01/03 08:09:46;;;;;;;14.83;3.33;;;9.40;99.90;;;;;;12880316;23;20202;-76
2022/01/03 08:14:47;;;;;;;14.63;2.97;;;9.50;99.90;;;;;;12915783;23;20324;-78
2022/01/03 08:19:49;;;;;;;16.97;2.70;;;9.70;99.90;;;;;;12889316;23;20686;-77
2022/01/03 08:25:23;;;;;;;9.57;2.13;;;9.90;99.90;;;;;;12906032;23;20208;-78
2022/01/03 08:30:35;;;;;;;13.03;2.27;;;9.90;99.90;;;;;;12925311;22;20212;-79
2022/01/03 08:35:38;;;;;;;12.40;3.17;;;10.10;99.90;;;;;;12874546;23;20204;-77
2022/01/03 08:40:41;;;;;;;12.03;2.87;;;10.10;99.90;;;;;;12871487;23;20200;-76
2022/01/03 08:45:42;;;;;;;16.23;3.07;;;10.20;99.90;;;;;;12912074;23;20659;-78
2022/01/03 08:50:44;;;;;;;12.43;2.87;;;10.30;99.90;;;;;;12914036;23;20200;-77
2022/01/03 08:55:45;;;;;;;15.30;3.43;;;10.40;99.90;;;;;;12887679;23;20212;-74
2022/01/03 09:00:46;;;;;;;10.50;2.53;;;10.40;99.90;;;;;;12914362;23;20284;-75
2022/01/03 09:05:54;;;;;;;12.17;2.03;;;10.50;99.90;;;;;;12894214;23;20251;-75
2022/01/03 09:16:55;;;;;;;8.40;2.00;;;10.60;99.90;;;;;;12916603;23;20667;-75
2022/01/03 09:22:11;;;;;;;10.93;2.07;;;10.70;99.90;;;;;;12915054;23;20192;-74
2022/01/03 09:32:34;;;;;;;12.10;2.93;;;10.80;99.90;;;;;;12914710;23;20459;-77
2022/01/03 09:37:37;;;;;;;12.33;2.30;;;10.90;99.90;;;;;;12872603;23;20207;-76
2022/01/03 09:42:53;;;;;;;12.10;2.87;;;10.90;99.90;;;;;;12911262;23;20202;-77
2022/01/03 09:48:07;;;;;;;8.73;2.47;;;10.90;99.90;;;;;;12921396;23;20204;-75
2022/01/03 09:53:09;;;;;;;14.70;2.67;;;10.80;99.90;;;;;;12889203;23;20302;-78
2022/01/03 09:58:10;;;;;;;12.60;2.70;;;10.80;99.90;;;;;;12889706;23;20220;-76
2022/01/03 10:03:11;;;;;;;13.77;3.13;;;10.80;99.90;;;;;;12886704;23;20197;-77
2022/01/03 10:08:12;;;;;;;14.13;2.97;;;10.80;99.90;;;;;;12888693;23;20221;-81
2022/01/03 10:13:15;;;;;;;10.53;2.83;;;10.90;99.90;;;;;;12889352;23;20650;-78
2022/01/03 10:18:20;;;;;;;13.17;2.43;;;10.90;99.90;;;;;;12887459;23;20253;-77
2022/01/03 10:23:22;;;;;;;8.83;2.17;;;11.00;99.90;;;;;;12902105;23;20201;-76
2022/01/03 10:28:25;;;;;;;11.57;2.77;;;11.10;99.90;;;;;;12890325;23;20279;-75
2022/01/03 10:33:26;;;;;;;13.67;2.80;;;11.20;99.90;;;;;;12918084;23;20218;-77
2022/01/03 10:38:37;;;;;;;15.97;3.20;;;11.20;99.90;;;;;;12894914;23;20223;-77
2022/01/03 10:43:37;;;;;;;15.90;3.40;;;11.20;99.90;;;;;;12919966;23;20209;-74
2022/01/03 10:48:38;;;;;;;11.77;2.33;;;11.20;99.90;;;;;;12900625;23;20329;-74
2022/01/03 10:53:41;;;;;;;13.90;3.17;;;11.20;99.90;;;;;;12911697;23;20482;-78
2022/01/03 10:58:43;;;;;;;18.97;3.40;;;11.10;99.90;;;;;;12916628;23;20272;-76
2022/01/03 11:03:46;;;;;;;10.23;2.80;;;11.20;99.90;;;;;;12917960;23;20256;-75
2022/01/03 11:14:07;;;;;;;12.03;2.73;;;11.20;99.90;;;;;;12916226;23;20205;-76
2022/01/03 11:19:08;;;;;;;15.00;2.97;;;11.20;99.90;;;;;;12917624;23;20677;-76
2022/01/03 11:24:11;;;;;;;10.83;2.63;;;11.30;99.90;;;;;;12917555;23;20298;-77
2022/01/03 11:29:13;;;;;;;14.27;3.10;;;11.40;99.90;;;;;;12890551;23;20206;-76
2022/01/03 11:34:14;;;;;;;14.87;3.67;;;11.50;99.90;;;;;;12916398;23;20538;-74
2022/01/03 11:39:18;;;;;;;10.77;2.47;;;11.70;99.90;;;;;;12886225;23;20193;-74
2022/01/03 11:44:19;;;;;;;13.30;2.80;;;11.70;99.90;;;;;;12887714;23;20251;-75
2022/01/03 11:49:21;;;;;;;12.20;3.07;;;11.80;99.90;;;;;;12916277;23;20275;-76
2022/01/03 11:54:25;;;;;;;10.93;2.77;;;11.80;99.90;;;;;;12916341;23;20926;-73
2022/01/03 12:03:36;;;;;;;12.10;2.57;;;11.90;99.90;;;;;;12914889;23;20564;-73
2022/01/03 12:04:57;;;;;;;12.17;2.67;;;12.00;99.90;;;;;;12915854;23;20200;-73
2022/01/03 12:10:10;;;;;;;11.97;2.80;;;12.10;99.90;;;;;;12912706;23;20270;-75
2022/01/03 12:15:31;;;;;;;11.67;2.70;;;12.10;99.90;;;;;;12916718;23;20202;-76
2022/01/03 12:20:40;;;;;;;14.57;2.70;;;12.10;99.90;;;;;;12917019;23;20999;-75
2022/01/03 12:25:46;;;;;;;12.43;3.33;;;12.10;99.90;;;;;;12891371;23;20273;-76
2022/01/03 12:30:56;;;;;;;16.03;3.20;;;12.10;99.90;;;;;;12916483;23;20205;-76
2022/01/03 12:36:17;;;;;;;12.07;2.80;;;12.10;99.90;;;;;;12917856;23;20204;-76
2022/01/03 12:41:38;;;;;;;11.07;2.77;;;12.20;99.90;;;;;;12915049;23;20203;-75
2022/01/03 12:46:42;;;;;;;15.17;3.83;;;12.30;99.90;;;;;;12889192;23;20204;-76
2022/01/03 12:51:42;;;;;;;11.53;2.97;;;12.50;99.90;;;;;;12915086;23;20654;-76
2022/01/03 12:56:43;;;;;;;12.53;3.03;;;12.70;99.90;;;;;;12916187;23;20253;-76
2022/01/03 13:01:44;;;;;;;13.37;3.37;;;12.80;99.90;;;;;;12886384;23;20287;-76
2022/01/03 13:06:45;;;;;;;10.80;2.40;;;12.90;99.90;;;;;;12885606;23;20281;-76
2022/01/03 13:11:48;;;;;;;13.80;3.07;;;12.90;99.90;;;;;;12886411;23;20224;-76
2022/01/03 13:16:55;;;;;;;13.40;2.80;;;12.80;99.90;;;;;;12889462;23;20212;-76
2022/01/03 13:22:10;;;;;;;12.77;3.00;;;12.70;99.90;;;;;;12874032;23;20652;-76
2022/01/03 13:27:15;;;;;;;9.37;2.83;;;12.60;99.90;;;;;;12888740;23;20205;-74
2022/01/03 13:32:20;;;;;;;12.40;2.73;;;12.40;99.90;;;;;;12889585;23;20206;-75
2022/01/03 13:37:23;;;;;;;11.90;2.70;;;12.20;99.90;;;;;;12885860;23;20260;-76
2022/01/03 13:42:39;;;;;;;15.40;2.77;;;12.20;99.90;;;;;;12915107;23;20217;-76
2022/01/03 13:53:04;;;;;;;10.60;2.43;;;12.10;99.90;;;;;;12898495;23;20648;-76
2022/01/03 13:58:11;;;;;;;11.50;2.40;;;12.00;99.90;;;;;;12887875;23;20219;-76
2022/01/03 14:03:15;;;;;;;9.53;2.70;;;12.00;99.90;;;;;;12917338;23;20208;-76
2022/01/03 14:08:19;;;;;;;10.53;2.57;;;11.90;99.90;;;;;;12918131;23;20663;-76
2022/01/03 14:13:22;;;;;;;10.50;2.60;;;11.80;99.90;;;;;;12890046;23;20202;-75
2022/01/03 14:18:45;;;;;;;11.93;2.50;;;11.70;99.90;;;;;;12893319;23;20265;-76
2022/01/03 14:23:51;;;;;;;9.30;2.53;;;11.70;99.90;;;;;;12895271;23;20759;-77
2022/01/03 14:29:10;;;;;;;11.97;2.07;;;11.70;99.90;;;;;;12930854;23;20219;-79
2022/01/03 14:34:18;;;;;;;9.83;2.50;;;11.70;99.90;;;;;;12921346;23;20683;-76
2022/01/03 14:39:19;;;;;;;8.50;2.40;;;11.70;99.90;;;;;;12903409;23;20225;-75
2022/01/03 14:44:24;;;;;;;10.33;2.40;;;11.70;99.90;;;;;;12895195;23;20206;-77
2022/01/03 14:49:24;;;;;;;7.33;1.97;;;11.70;99.90;;;;;;12919466;23;20201;-73
2022/01/03 14:54:36;;;;;;;13.33;2.40;;;11.60;99.90;;;;;;12890198;23;20246;-73
2022/01/03 14:59:47;;;;;;;10.47;2.13;;;11.60;99.90;;;;;;12890895;23;20215;-77
2022/01/03 15:04:47;;;;;;;9.13;2.37;;;11.60;99.90;;;;;;12895683;23;20293;-77
2022/01/03 15:09:49;;;;;;;9.40;2.30;;;11.50;99.90;;;;;;12893780;23;20213;-77
2022/01/03 15:14:50;;;;;;;10.07;2.43;;;11.50;99.90;;;;;;12892421;23;20577;-77
2022/01/03 15:19:50;;;;;;;6.03;2.40;;;11.50;99.90;;;;;;12894823;23;20256;-76
2022/01/03 15:24:51;;;;;;;11.40;2.40;;;11.40;99.90;;;;;;12891566;23;20596;-77
2022/01/03 15:29:53;;;;;;;8.67;2.60;;;11.50;99.90;;;;;;12891241;23;20213;-76
2022/01/03 15:34:53;;;;;;;9.43;2.57;;;11.40;99.90;;;;;;12892523;23;20270;-76
2022/01/03 15:39:54;;;;;;;11.33;2.50;;;11.40;99.90;;;;;;12887490;23;20955;-77
2022/01/03 15:44:55;;;;;;;9.10;2.13;;;11.40;99.90;;;;;;12912236;23;20204;-74
2022/01/03 15:49:55;;;;;;;11.10;2.50;;;11.40;99.90;;;;;;12908902;23;20236;-74
2022/01/03 15:54:56;;;;;;;12.13;2.40;;;11.40;99.90;;;;;;12909515;23;20213;-73
2022/01/03 15:59:56;;;;;;;8.10;2.07;;;11.40;99.90;;;;;;12911723;23;20217;-77
2022/01/03 16:11:05;;;;;;;8.90;2.27;;;11.40;99.90;;;;;;12926447;23;20293;-77
2022/01/03 16:16:05;;;;;;;8.87;2.00;;;11.40;99.90;;;;;;12897128;23;20240;-78
2022/01/03 16:21:06;;;;;;;7.47;1.83;;;11.40;99.90;;;;;;12892364;23;20198;-77
2022/01/03 16:26:20;;;;;;;10.70;2.43;;;11.30;99.90;;;;;;12892656;23;20657;-78
2022/01/03 16:31:21;;;;;;;9.80;2.00;;;11.30;99.90;;;;;;12921398;23;20244;-77
2022/01/03 16:36:43;;;;;;;6.93;2.00;;;11.20;99.90;;;;;;12904362;23;20209;-78
2022/01/03 16:41:46;;;;;;;8.03;2.17;;;11.20;99.90;;;;;;12896112;23;20609;-78
2022/01/03 16:46:47;;;;;;;7.20;2.67;;;11.10;99.90;;;;;;12923416;23;20217;-79
2022/01/03 16:51:47;;;;;;;9.50;2.27;;;11.10;99.90;;;;;;12893916;23;20294;-77
2022/01/03 16:56:48;;;;;;;8.13;1.93;;;11.10;99.90;;;;;;12890644;23;20214;-78
2022/01/03 17:01:48;;;;;;;8.20;1.83;;;11.10;99.90;;;;;;12895949;23;20879;-77
2022/01/03 17:06:49;;;;;;;8.77;2.50;;;11.10;99.90;;;;;;12891184;23;20275;-78
2022/01/03 17:11:50;;;;;;;10.47;2.37;;;11.10;99.90;;;;;;12892235;23;20200;-77
2022/01/03 17:16:52;;;;;;;8.23;1.97;;;11.10;99.90;;;;;;12916631;23;20216;-76
2022/01/03 17:21:53;;;;;;;8.70;1.90;;;11.10;99.90;;;;;;12891164;23;20205;-78
2022/01/03 17:26:54;;;;;;;8.67;1.57;;;11.10;99.90;;;;;;12918711;23;20709;-77
2022/01/03 17:31:55;;;;;;;8.43;1.90;;;11.10;99.90;;;;;;12919167;23;20553;-78
2022/01/03 17:36:55;;;;;;;6.13;1.77;;;11.10;99.90;;;;;;12917209;23;20901;-77
2022/01/03 17:41:56;;;;;;;6.50;1.53;;;11.10;99.90;;;;;;12918615;23;20267;-77
2022/01/03 17:46:58;;;;;;;5.23;1.63;;;11.10;99.90;;;;;;12927935;23;20663;-78
2022/01/03 17:51:59;;;;;;;8.80;2.23;;;11.00;99.90;;;;;;12927667;23;20206;-77
2022/01/03 17:56:59;;;;;;;6.87;2.10;;;11.00;99.90;;;;;;12918066;23;20301;-77
2022/01/03 18:02:00;;;;;;;9.93;2.43;;;11.00;99.90;;;;;;12893485;23;20196;-77
2022/01/03 18:07:01;;;;;;;9.53;2.53;;;10.90;99.90;;;;;;12894058;23;20205;-77
2022/01/03 18:12:03;;;;;;;6.40;2.50;;;10.90;99.90;;;;;;12896096;23;20225;-77
2022/01/03 18:17:04;;;;;;;9.17;2.97;;;10.90;99.90;;;;;;12894285;23;20241;-77
2022/01/03 18:22:05;;;;;;;10.97;1.93;;;10.90;99.90;;;;;;12928086;23;20657;-78
2022/01/03 18:27:06;;;;;;;10.73;2.70;;;10.80;99.90;;;;;;12895659;23;20210;-77
2022/01/03 18:32:07;;;;;;;6.00;2.47;;;10.80;99.90;;;;;;12895874;23;20353;-78
2022/01/03 18:37:10;;;;;;;9.17;2.53;;;10.80;99.90;;;;;;12932288;23;20274;-79
2022/01/03 18:42:12;;;;;;;9.00;2.37;;;10.80;99.90;;;;;;12897866;23;20205;-77
2022/01/03 18:47:12;;;;;;;8.90;2.20;;;10.80;99.90;;;;;;12925404;23;20209;-74
2022/01/03 18:52:13;;;;;;;6.77;2.60;;;10.90;99.90;;;;;;12915507;23;20663;-75
2022/01/03 18:57:13;;;;;;;8.47;2.40;;;10.90;99.90;;;;;;12893957;23;20213;-76
2022/01/03 19:02:14;;;;;;;5.47;2.13;;;10.90;99.90;;;;;;12892683;23;20225;-76
2022/01/03 19:07:15;;;;;;;8.60;2.60;;;10.90;99.90;;;;;;12916793;23;20255;-75
2022/01/03 19:12:19;;;;;;;7.03;1.83;;;10.90;99.90;;;;;;12917791;23;20202;-76
2022/01/03 19:17:19;;;;;;;6.50;1.87;;;10.90;99.90;;;;;;12916617;23;20591;-76
2022/01/03 19:22:20;;;;;;;8.33;2.00;;;10.90;99.90;;;;;;12917850;23;20244;-76
2022/01/03 19:27:20;;;;;;;4.30;1.73;;;10.90;99.90;;;;;;12918265;23;20254;-77
2022/01/03 19:32:25;;;;;;;5.00;1.83;;;10.90;99.90;;;;;;12890571;23;20204;-77
2022/01/03 19:42:45;;;;;;;7.00;2.20;;;11.00;99.90;;;;;;12916937;23;20206;-76
2022/01/03 19:47:45;;;;;;;3.20;1.77;;;11.00;99.90;;;;;;12916126;23;20283;-76
2022/01/03 19:52:46;;;;;;;6.30;2.20;;;11.00;99.90;;;;;;12916671;23;20215;-76
2022/01/03 19:57:47;;;;;;;6.27;2.20;;;11.00;99.90;;;;;;12915636;23;20681;-75
2022/01/03 20:02:48;;;;;;;8.03;2.77;;;11.00;99.90;;;;;;12892491;23;20232;-76
2022/01/03 20:07:49;;;;;;;5.97;2.60;;;11.00;99.90;;;;;;12915817;23;20283;-76
2022/01/03 20:12:49;;;;;;;5.90;2.27;;;11.00;99.90;;;;;;12916398;23;20205;-76
2022/01/03 20:17:51;;;;;;;6.60;2.27;;;11.00;99.90;;;;;;12915177;23;20213;-75
2022/01/03 20:22:52;;;;;;;7.60;2.10;;;11.00;99.90;;;;;;12888912;23;20205;-75
2022/01/03 20:27:53;;;;;;;5.67;2.20;;;11.00;99.90;;;;;;12914059;23;20274;-76
2022/01/03 20:32:54;;;;;;;7.50;2.37;;;11.00;99.90;;;;;;12889364;23;20229;-76
2022/01/03 20:37:54;;;;;;;7.00;2.43;;;11.00;99.90;;;;;;12914427;23;20216;-77
2022/01/03 20:42:55;;;;;;;6.73;1.80;;;11.00;99.90;;;;;;12888337;23;20200;-75
2022/01/03 20:47:55;;;;;;;5.00;2.07;;;10.90;99.90;;;;;;12915124;23;20942;-76
2022/01/03 20:52:57;;;;;;;5.00;1.70;;;10.80;99.90;;;;;;12917036;23;20662;-76
2022/01/03 20:58:00;;;;;;;5.33;2.30;;;10.80;99.90;;;;;;12914366;23;20229;-75
2022/01/03 21:03:01;;;;;;;10.10;1.80;;;10.70;99.90;;;;;;12887197;23;20205;-74
2022/01/03 21:08:02;;;;;;;3.10;1.23;;;10.70;99.90;;;;;;12883740;23;20842;-73
2022/01/03 21:13:09;;;;;;;5.77;1.90;;;10.60;99.90;;;;;;12917335;23;20546;-78
2022/01/03 21:18:10;;;;;;;4.50;1.87;;;10.60;99.90;;;;;;12919501;23;20213;-79
2022/01/03 21:23:11;;;;;;;5.67;1.77;;;10.50;99.90;;;;;;12889379;23;20223;-76
2022/01/03 21:28:12;;;;;;;7.97;2.03;;;10.50;99.90;;;;;;12889243;23;20235;-74
2022/01/03 21:33:17;;;;;;;6.37;2.10;;;10.40;99.90;;;;;;12891609;23;20260;-77
2022/01/03 21:38:17;;;;;;;6.20;2.17;;;10.40;99.90;;;;;;12902909;23;20239;-76
2022/01/03 21:43:18;;;;;;;5.77;2.50;;;10.30;99.90;;;;;;12918737;23;20212;-75
2022/01/03 21:48:19;;;;;;;6.23;3.03;;;10.30;99.90;;;;;;12890054;23;20775;-76
2022/01/03 21:53:21;;;;;;;5.63;2.13;;;10.30;99.90;;;;;;12890347;23;20204;-77
2022/01/03 21:58:24;;;;;;;8.40;2.83;;;10.30;99.90;;;;;;12893987;23;20300;-76
2022/01/03 22:03:25;;;;;;;6.70;2.43;;;10.30;99.90;;;;;;12897800;23;20207;-77
2022/01/03 22:08:28;;;;;;;7.50;2.30;;;10.30;99.90;;;;;;12894126;23;20680;-76
2022/01/03 22:13:30;;;;;;;4.80;2.37;;;10.30;99.90;;;;;;12917003;23;20209;-78
2022/01/03 22:18:31;;;;;;;4.67;2.20;;;10.20;99.90;;;;;;12896204;23;20683;-77
2022/01/03 22:23:31;;;;;;;6.50;3.43;;;10.20;99.90;;;;;;12922852;23;20203;-75
2022/01/03 22:28:32;;;;;;;7.13;2.37;;;10.10;99.90;;;;;;12924638;22;20518;-76
2022/01/03 22:33:33;;;;;;;10.30;3.20;;;10.10;99.90;;;;;;12899150;23;20205;-78
2022/01/03 22:38:34;;;;;;;6.13;2.67;;;10.00;99.90;;;;;;12924905;23;20727;-77
2022/01/03 22:43:36;;;;;;;8.97;2.90;;;10.00;99.90;;;;;;12897914;23;20712;-77
2022/01/03 22:48:37;;;;;;;11.27;3.43;;;9.90;99.90;;;;;;12880003;23;20272;-75
2022/01/03 22:53:37;;;;;;;9.73;3.10;;;9.90;99.90;;;;;;12896601;23;20215;-76
2022/01/03 22:58:38;;;;;;;11.63;3.43;;;9.90;99.90;;;;;;12892819;23;20238;-76
2022/01/03 23:03:39;;;;;;;6.63;3.23;;;9.90;99.90;;;;;;12894070;23;20659;-75
2022/01/03 23:08:42;;;;;;;8.33;3.80;;;9.80;99.90;;;;;;12920065;23;20207;-76
2022/01/03 23:13:44;;;;;;;7.73;3.50;;;9.80;99.90;;;;;;12893840;23;20208;-77
2022/01/03 23:18:45;;;;;;;8.10;3.70;;;9.80;99.90;;;;;;12892358;23;20216;-75
2022/01/03 23:23:49;;;;;;;7.93;3.50;;;9.90;99.90;;;;;;12889902;23;20256;-75
2022/01/03 23:28:50;;;;;;;4.63;3.10;;;9.80;99.90;;;;;;12915887;22;20241;-75
2022/01/03 23:33:51;;;;;;;5.87;3.23;;;9.90;99.90;;;;;;12916373;23;20283;-77
2022/01/03 23:38:51;;;;;;;6.07;3.67;;;9.90;99.90;;;;;;12915891;23;20228;-76
2022/01/03 23:43:52;;;;;;;4.03;3.13;;;9.90;99.90;;;;;;12915064;23;20207;-76
2022/01/03 23:48:53;;;;;;;3.87;3.10;;;9.80;99.90;;;;;;12887799;23;20279;-76
2022/01/03 23:53:55;;;;;;;4.00;2.93;;;9.80;99.90;;;;;;12915497;23;20211;-75
2022/01/03 23:58:55;;;;;;;4.70;3.10;;;9.80;99.90;;;;;;12887726;23;20268;-74
